Time;durP1;ratioP1;P1;durP2;ratioP2;P2;SDS_P1;SDS_P2;PMS_P1;PMS_P2;Temp;Humidity;BMP_temperature;BMP_pressure;BME280_temperature;BME280_humidity;BME280_pressure;Samples;Min_cycle;Max_cycle;Signal;HPM_P1;HPM_P2
2022/04/03 00:00:32;;;;;;;4.97;2.35;;;;;;;;;;5036516;28;20022;-78
2022/04/03 00:02:58;;;;;;;2.85;1.88;;;;;;;;;;5042426;28;20021;-78
2022/04/03 00:05:24;;;;;;;6.97;2.75;;;;;;;;;;5040792;28;20021;-78
2022/04/03 00:07:50;;;;;;;9.18;4.35;;;;;;;;;;5040862;28;20055;-78
2022/04/03 00:10:16;;;;;;;6.60;3.17;;;;;;;;;;5039343;28;20033;-78
2022/04/03 00:12:46;;;;;;;5.15;2.75;;;;;;;;;;5039404;28;20032;-78
2022/04/03 00:15:12;;;;;;;6.18;3.42;;;;;;;;;;5038029;28;20032;-78
2022/04/03 00:17:38;;;;;;;9.70;5.57;;;;;;;;;;5038982;28;20047;-78
2022/04/03 00:20:04;;;;;;;6.45;3.67;;;;;;;;;;5041241;28;20025;-78
2022/04/03 00:22:30;;;;;;;5.22;1.85;;;;;;;;;;5041820;28;20040;-78
2022/04/03 00:24:56;;;;;;;11.85;3.70;;;;;;;;;;5040072;28;20026;-78
2022/04/03 00:27:22;;;;;;;6.57;3.72;;;;;;;;;;5037737;28;20683;-78
2022/04/03 00:29:48;;;;;;;6.10;3.65;;;;;;;;;;5038855;28;20167;-78
2022/04/03 00:32:14;;;;;;;8.65;4.18;;;;;;;;;;5037167;28;20195;-78
2022/04/03 00:34:40;;;;;;;9.20;5.20;;;;;;;;;;5037172;28;20032;-77
2022/04/03 00:37:06;;;;;;;20.77;6.32;;;;;;;;;;5037878;28;20052;-76
2022/04/03 00:39:32;;;;;;;31.77;7.43;;;;;;;;;;5043257;28;20717;-79
2022/04/03 00:41:58;;;;;;;24.17;7.75;;;;;;;;;;5038420;28;20037;-78
2022/04/03 00:44:24;;;;;;;14.63;5.05;;;;;;;;;;5036803;28;20039;-76
2022/04/03 00:46:51;;;;;;;9.73;4.47;;;;;;;;;;5033452;28;20026;-77
2022/04/03 00:49:17;;;;;;;13.00;5.47;;;;;;;;;;5037997;28;20027;-78
2022/04/03 00:51:43;;;;;;;10.43;5.53;;;;;;;;;;5029861;28;20024;-79
2022/04/03 00:54:09;;;;;;;7.28;3.28;;;;;;;;;;5038135;28;20600;-78
2022/04/03 00:56:35;;;;;;;6.35;3.38;;;;;;;;;;5039171;28;20036;-78
2022/04/03 00:59:01;;;;;;;5.97;3.00;;;;;;;;;;5048580;28;20092;-78
2022/04/03 01:01:27;;;;;;;3.35;2.28;;;;;;;;;;5048669;28;20025;-76
2022/04/03 01:03:53;;;;;;;5.18;3.03;;;;;;;;;;5045059;28;20047;-78
2022/04/03 01:06:19;;;;;;;5.20;2.30;;;;;;;;;;5043199;28;20029;-78
2022/04/03 01:08:45;;;;;;;6.40;3.08;;;;;;;;;;5041195;28;20035;-78
2022/04/03 01:11:15;;;;;;;6.22;2.92;;;;;;;;;;5043503;28;20037;-78
2022/04/03 01:13:45;;;;;;;5.25;2.65;;;;;;;;;;5048781;28;20071;-79
2022/04/03 01:16:11;;;;;;;6.13;2.90;;;;;;;;;;5047239;28;20025;-78
2022/04/03 01:18:37;;;;;;;4.65;2.67;;;;;;;;;;5053668;28;20056;-77
2022/04/03 01:21:03;;;;;;;5.03;2.78;;;;;;;;;;5047634;28;20574;-79
2022/04/03 01:23:30;;;;;;;4.47;2.45;;;;;;;;;;5036319;28;20045;-79
2022/04/03 01:25:56;;;;;;;4.10;2.65;;;;;;;;;;5033165;28;20084;-78
2022/04/03 01:28:23;;;;;;;5.85;3.33;;;;;;;;;;5038461;28;20037;-78
2022/04/03 01:30:49;;;;;;;5.47;2.05;;;;;;;;;;5045518;28;20017;-78
2022/04/03 01:33:15;;;;;;;6.45;2.63;;;;;;;;;;5034531;28;20039;-79
2022/04/03 01:35:41;;;;;;;6.88;2.65;;;;;;;;;;5048249;28;20573;-78
2022/04/03 01:38:08;;;;;;;5.75;1.80;;;;;;;;;;5038918;28;20075;-79
2022/04/03 01:40:35;;;;;;;5.28;2.47;;;;;;;;;;5039518;28;20033;-79
2022/04/03 01:43:06;;;;;;;7.35;3.15;;;;;;;;;;5032221;28;20057;-79
2022/04/03 01:45:32;;;;;;;6.47;2.47;;;;;;;;;;5035005;28;20032;-78
2022/04/03 01:47:59;;;;;;;8.93;3.28;;;;;;;;;;5040491;28;20401;-78
2022/04/03 01:50:25;;;;;;;4.90;2.70;;;;;;;;;;5042984;28;20044;-78
2022/04/03 01:52:51;;;;;;;7.32;2.92;;;;;;;;;;5038408;28;20021;-79
2022/04/03 01:55:18;;;;;;;13.48;3.75;;;;;;;;;;5039650;28;20026;-78
2022/04/03 01:57:44;;;;;;;13.77;2.80;;;;;;;;;;5047184;28;20513;-78
2022/04/03 02:00:10;;;;;;;5.90;3.63;;;;;;;;;;5034126;28;20104;-78
2022/04/03 02:02:39;;;;;;;5.68;3.45;;;-1.10;99.90;;;;;;5035208;28;20033;-78
2022/04/03 02:05:06;;;;;;;9.82;3.03;;;;;;;;;;5040552;28;20029;-79
2022/04/03 02:07:33;;;;;;;7.72;4.05;;;;;;;;;;5032942;28;20135;-78
2022/04/03 02:09:59;;;;;;;4.25;1.77;;;;;;;;;;5038410;28;20036;-78
2022/04/03 02:12:25;;;;;;;4.35;2.95;;;;;;;;;;5041201;28;20021;-78
2022/04/03 02:14:51;;;;;;;6.57;4.15;;;-0.60;99.90;;;;;;5038199;28;20056;-79
2022/04/03 02:17:17;;;;;;;4.85;3.30;;;;;;;;;;5036283;28;20076;-78
2022/04/03 02:19:43;;;;;;;9.25;4.07;;;;;;;;;;5040167;28;20018;-78
2022/04/03 02:22:09;;;;;;;7.28;2.85;;;;;;;;;;5038259;28;20038;-78
2022/04/03 02:24:35;;;;;;;4.07;2.17;;;;;;;;;;5037060;28;20030;-78
2022/04/03 02:27:01;;;;;;;6.68;2.92;;;;;;;;;;5042334;28;20060;-78
2022/04/03 02:29:27;;;;;;;5.72;3.95;;;;;;;;;;5039577;28;20029;-79
2022/04/03 02:31:53;;;;;;;13.10;3.60;;;;;;;;;;5031376;28;20037;-79
2022/04/03 02:34:19;;;;;;;7.13;3.40;;;;;;;;;;5037733;28;20381;-78
2022/04/03 02:36:45;;;;;;;12.55;3.00;;;;;;;;;;5039704;28;20030;-78
2022/04/03 02:39:14;;;;;;;4.90;2.75;;;;;;;;;;5040045;28;20482;-78
2022/04/03 02:41:40;;;;;;;6.03;2.65;;;;;;;;;;5040853;28;20056;-78
2022/04/03 02:44:06;;;;;;;9.10;3.30;;;;;;;;;;5039520;28;20025;-77
2022/04/03 02:46:32;;;;;;;6.45;3.33;;;-0.80;99.90;;;;;;5046206;28;20043;-78
2022/04/03 02:48:58;;;;;;;9.95;4.25;;;;;;;;;;5041662;28;20029;-77
2022/04/03 02:51:24;;;;;;;6.40;4.00;;;;;;;;;;5039708;28;20045;-78
2022/04/03 02:53:50;;;;;;;4.95;2.80;;;;;;;;;;5041891;28;20161;-78
2022/04/03 02:56:16;;;;;;;7.60;3.33;;;;;;;;;;5043854;28;20606;-77
2022/04/03 02:58:42;;;;;;;4.45;2.47;;;;;;;;;;5044175;28;20041;-78
2022/04/03 03:01:08;;;;;;;8.20;3.97;;;;;;;;;;5039144;28;20398;-77
2022/04/03 03:03:34;;;;;;;5.95;3.13;;;;;;;;;;5041889;28;20037;-78
2022/04/03 03:06:01;;;;;;;5.13;4.00;;;;;;;;;;5043415;28;20034;-78
2022/04/03 03:08:27;;;;;;;6.65;2.78;;;;;;;;;;5047507;28;20032;-77
2022/04/03 03:10:53;;;;;;;5.85;3.25;;;;;;;;;;5052075;28;20060;-77
2022/04/03 03:13:18;;;;;;;7.07;3.05;;;;;;;;;;5052278;28;20043;-78
2022/04/03 03:15:44;;;;;;;5.80;3.28;;;;;;;;;;5044657;28;20025;-78
2022/04/03 03:18:10;;;;;;;6.38;3.20;;;;;;;;;;5045011;28;20944;-77
2022/04/03 03:20:36;;;;;;;4.20;2.97;;;;;;;;;;5042342;28;20017;-78
2022/04/03 03:23:03;;;;;;;4.03;2.85;;;;;;;;;;5037884;28;21761;-78
2022/04/03 03:25:29;;;;;;;4.80;3.03;;;;;;;;;;5025735;28;20021;-77
2022/04/03 03:27:55;;;;;;;3.38;2.70;;;;;;;;;;5030569;28;20037;-77
2022/04/03 03:30:21;;;;;;;6.57;2.75;;;;;;;;;;5037348;28;20032;-78
2022/04/03 03:32:47;;;;;;;1.70;1.58;;;;;;;;;;5037405;28;20117;-78
2022/04/03 03:35:14;;;;;;;5.97;2.38;;;;;;;;;;5044531;28;20114;-77
2022/04/03 03:37:40;;;;;;;9.30;3.88;;;;;;;;;;5038947;28;20037;-77
2022/04/03 03:40:11;;;;;;;8.35;3.88;;;;;;;;;;5045056;28;20038;-77
2022/04/03 03:42:37;;;;;;;7.35;4.13;;;;;;;;;;5039695;28;20037;-77
2022/04/03 03:45:03;;;;;;;5.70;3.17;;;;;;;;;;5037120;28;20047;-78
2022/04/03 03:47:29;;;;;;;6.25;3.70;;;;;;;;;;5035615;28;20042;-77
2022/04/03 03:49:55;;;;;;;5.07;2.85;;;;;;;;;;5051326;28;20036;-77
2022/04/03 03:52:21;;;;;;;4.57;2.13;;;;;;;;;;5041748;28;20033;-78
2022/04/03 03:54:48;;;;;;;6.72;3.05;;;;;;;;;;5042433;28;20024;-77
2022/04/03 03:57:14;;;;;;;7.45;3.50;;;;;;;;;;5034716;28;20394;-78
2022/04/03 03:59:40;;;;;;;7.60;3.72;;;;;;;;;;5037564;28;20025;-77
2022/04/03 04:02:06;;;;;;;6.07;2.55;;;;;;;;;;5037726;28;20335;-78
2022/04/03 04:04:32;;;;;;;4.25;2.92;;;;;;;;;;5034266;28;20179;-78
2022/04/03 04:06:58;;;;;;;7.65;3.92;;;;;;;;;;5041104;28;20483;-77
2022/04/03 04:09:24;;;;;;;7.25;3.75;;;;;;;;;;5045924;28;20267;-78
2022/04/03 04:11:50;;;;;;;8.40;3.25;;;;;;;;;;5045942;28;20021;-78
2022/04/03 04:14:16;;;;;;;6.60;3.03;;;;;;;;;;5038855;28;20143;-78
2022/04/03 04:16:42;;;;;;;7.43;3.55;;;;;;;;;;5040067;28;20045;-77
2022/04/03 04:19:09;;;;;;;7.05;3.78;;;;;;;;;;5043451;28;20100;-78
2022/04/03 04:21:35;;;;;;;5.53;2.95;;;;;;;;;;5038985;28;20685;-78
2022/04/03 04:24:01;;;;;;;6.07;4.03;;;;;;;;;;5040120;28;20085;-78
2022/04/03 04:26:27;;;;;;;7.78;3.80;;;;;;;;;;5042677;28;20033;-78
2022/04/03 04:28:53;;;;;;;8.70;3.58;;;;;;;;;;5039400;28;20078;-77
2022/04/03 04:31:20;;;;;;;5.75;2.75;;;;;;;;;;5035759;28;20127;-77
2022/04/03 04:33:46;;;;;;;4.95;2.25;;;;;;;;;;5035289;28;20040;-77
2022/04/03 04:36:12;;;;;;;5.45;3.42;;;;;;;;;;5037295;28;20021;-77
2022/04/03 04:38:38;;;;;;;6.22;3.55;;;;;;;;;;5037296;28;20505;-77
2022/04/03 04:41:04;;;;;;;6.15;2.83;;;;;;;;;;5035654;28;20040;-78
2022/04/03 04:43:30;;;;;;;7.00;3.58;;;;;;;;;;5031304;28;20029;-77
2022/04/03 04:45:56;;;;;;;4.47;2.95;;;;;;;;;;5030959;28;20029;-78
2022/04/03 04:48:22;;;;;;;4.28;2.92;;;;;;;;;;5029076;28;20390;-78
2022/04/03 04:50:49;;;;;;;3.08;2.13;;;;;;;;;;5043888;28;20031;-78
2022/04/03 04:53:15;;;;;;;4.20;2.67;;;;;;;;;;5044123;28;20029;-78
2022/04/03 04:55:41;;;;;;;2.58;2.20;;;;;;;;;;5039788;28;20487;-78
2022/04/03 04:58:07;;;;;;;3.47;2.65;;;;;;;;;;5034776;28;20030;-77
2022/04/03 05:00:33;;;;;;;5.97;3.15;;;;;;;;;;5040711;28;20025;-78
2022/04/03 05:02:59;;;;;;;5.32;2.33;;;;;;;;;;5043821;28;20025;-77
2022/04/03 05:05:27;;;;;;;3.50;2.78;;;;;;;;;;5042395;28;20389;-77
2022/04/03 05:07:57;;;;;;;6.28;1.90;;;;;;;;;;5033990;28;20064;-78
2022/04/03 05:10:24;;;;;;;3.88;2.67;;;;;;;;;;5030055;28;20048;-77
2022/04/03 05:12:50;;;;;;;7.53;4.00;;;;;;;;;;5040897;28;20035;-77
2022/04/03 05:15:17;;;;;;;3.30;1.77;;;;;;;;;;5038939;28;20022;-77
2022/04/03 05:17:43;;;;;;;6.65;3.30;;;;;;;;;;5039849;28;20033;-78
2022/04/03 05:20:11;;;;;;;5.82;4.25;;;;;;;;;;5036069;28;20029;-77
2022/04/03 05:22:37;;;;;;;4.75;3.25;;;;;;;;;;5039133;28;20030;-77
2022/04/03 05:25:04;;;;;;;4.90;2.00;;;;;;;;;;5031065;28;20040;-78
2022/04/03 05:27:30;;;;;;;7.28;4.18;;;;;;;;;;5038941;28;20373;-78
2022/04/03 05:29:56;;;;;;;7.18;3.00;;;;;;;;;;5042880;28;20031;-78
2022/04/03 05:32:29;;;;;;;5.95;3.03;;;;;;;;;;5036562;28;20037;-78
2022/04/03 05:34:55;;;;;;;;;;;;;;;;;;5045510;28;20750;-78
2022/04/03 05:37:21;;;;;;;3.70;1.90;;;;;;;;;;5028674;28;20055;-77
2022/04/03 05:39:48;;;;;;;5.72;2.67;;;;;;;;;;5040316;28;20453;-78
2022/04/03 05:42:14;;;;;;;5.35;3.38;;;;;;;;;;5035954;28;20035;-77
2022/04/03 05:44:40;;;;;;;4.13;2.33;;;;;;;;;;5033455;28;20044;-77
2022/04/03 05:47:07;;;;;;;8.27;3.40;;;;;;;;;;5030359;28;20033;-77
2022/04/03 05:49:33;;;;;;;8.30;2.88;;;;;;;;;;5040047;28;20040;-78
2022/04/03 05:51:59;;;;;;;5.68;2.78;;;;;;;;;;5043254;28;20113;-78
2022/04/03 05:54:25;;;;;;;4.93;3.28;;;;;;;;;;5036566;28;20065;-78
2022/04/03 05:56:51;;;;;;;2.50;1.73;;;;;;;;;;5041931;28;20024;-77
2022/04/03 05:59:19;;;;;;;10.20;4.68;;;;;;;;;;5036201;28;20041;-77
2022/04/03 06:01:46;;;;;;;9.20;3.65;;;;;;;;;;5039429;28;20035;-78
2022/04/03 06:04:12;;;;;;;10.20;4.35;;;;;;;;;;5040436;28;20532;-78
2022/04/03 06:06:38;;;;;;;9.45;6.03;;;;;;;;;;5032770;28;20021;-78
2022/04/03 06:09:04;;;;;;;9.73;4.93;;;;;;;;;;5038927;28;20025;-78
2022/04/03 06:11:30;;;;;;;10.93;5.35;;;;;;;;;;5036586;28;20522;-78
2022/04/03 06:13:56;;;;;;;6.40;4.15;;;;;;;;;;5047858;28;20036;-78
2022/04/03 06:16:22;;;;;;;12.82;5.05;;;;;;;;;;5043260;28;20069;-77
2022/04/03 06:18:48;;;;;;;8.07;3.90;;;;;;;;;;5038637;28;20520;-78
2022/04/03 06:21:14;;;;;;;8.75;4.40;;;;;;;;;;5041569;28;20029;-79
2022/04/03 06:23:40;;;;;;;6.60;3.25;;;;;;;;;;5045271;28;20039;-77
2022/04/03 06:26:06;;;;;;;4.97;2.55;;;;;;;;;;5038734;28;20035;-77
2022/04/03 06:28:32;;;;;;;7.53;4.53;;;;;;;;;;5043797;28;20692;-77
2022/04/03 06:30:59;;;;;;;9.45;3.40;;;;;;;;;;5043688;28;20049;-78
2022/04/03 06:33:25;;;;;;;4.85;4.28;;;;;;;;;;5045592;28;20048;-78
2022/04/03 06:35:51;;;;;;;4.60;3.28;;;;;;;;;;5041952;28;20079;-78
2022/04/03 06:38:17;;;;;;;3.63;2.38;;;;;;;;;;5039417;28;20481;-77
2022/04/03 06:40:53;;;;;;;4.90;2.42;;;;;;;;;;5046675;28;20034;-78
2022/04/03 06:43:26;;;;;;;3.17;2.38;;;;;;;;;;5041284;28;20025;-78
2022/04/03 06:45:52;;;;;;;;;;;;;;;;;;5050287;28;20485;-78
2022/04/03 06:48:18;;;;;;;4.13;3.00;;;;;;;;;;5036335;28;19919;-78
2022/04/03 06:50:44;;;;;;;4.63;2.10;;;;;;;;;;5045348;28;20034;-78
2022/04/03 06:53:10;;;;;;;5.13;2.40;;;;;;;;;;5050261;28;20033;-78
2022/04/03 06:55:36;;;;;;;3.58;1.88;;;;;;;;;;5049188;28;20067;-77
2022/04/03 06:58:02;;;;;;;7.55;3.05;;;;;;;;;;5042479;28;20271;-78
2022/04/03 07:00:28;;;;;;;4.55;2.70;;;;;;;;;;5045609;28;20026;-78
2022/04/03 07:02:55;;;;;;;4.72;2.78;;;;;;;;;;5052288;28;20176;-79
2022/04/03 07:05:21;;;;;;;4.82;2.80;;;;;;;;;;5049128;28;20085;-78
2022/04/03 07:07:47;;;;;;;4.70;2.67;;;;;;;;;;5038572;28;20440;-78
2022/04/03 07:10:13;;;;;;;4.78;2.05;;;;;;;;;;5043563;28;20033;-78
2022/04/03 07:12:39;;;;;;;9.88;3.78;;;;;;;;;;5044463;28;20493;-78
2022/04/03 07:15:08;;;;;;;6.60;2.95;;;;;;;;;;5041273;28;20025;-78
2022/04/03 07:17:35;;;;;;;5.97;3.30;;;;;;;;;;5045921;28;20047;-78
2022/04/03 07:20:01;;;;;;;6.25;3.88;;;;;;;;;;5049684;28;20037;-78
2022/04/03 07:22:27;;;;;;;11.93;4.43;;;;;;;;;;5041800;28;20401;-78
2022/04/03 07:24:52;;;;;;;6.25;3.42;;;;;;;;;;5043759;28;20061;-78
2022/04/03 07:27:18;;;;;;;6.50;2.88;;;;;;;;;;5030818;28;20090;-78
2022/04/03 07:29:44;;;;;;;5.60;2.83;;;;;;;;;;5038177;28;20125;-79
2022/04/03 07:32:10;;;;;;;8.20;3.47;;;;;;;;;;5040232;28;20099;-78
2022/04/03 07:34:37;;;;;;;7.22;3.00;;;;;;;;;;5052812;28;20522;-77
2022/04/03 07:37:03;;;;;;;7.95;3.47;;;;;;;;;;5047561;28;20029;-78
2022/04/03 07:39:31;;;;;;;6.22;3.88;;;;;;;;;;5043935;28;20593;-78
2022/04/03 07:41:57;;;;;;;6.20;2.72;;;;;;;;;;5039797;28;20017;-77
2022/04/03 07:44:23;;;;;;;8.30;3.92;;;;;;;;;;5043424;28;20056;-79
2022/04/03 07:46:49;;;;;;;7.85;3.17;;;;;;;;;;5037154;28;20493;-78
2022/04/03 07:49:15;;;;;;;6.63;3.05;;;;;;;;;;5044971;28;20026;-78
2022/04/03 07:51:42;;;;;;;4.53;2.88;;;;;;;;;;5042871;28;20052;-77
2022/04/03 07:54:08;;;;;;;5.50;2.72;;;;;;;;;;5044769;28;20489;-78
2022/04/03 07:56:35;;;;;;;6.93;4.20;;;;;;;;;;5047882;28;20560;-78
2022/04/03 07:59:03;;;;;;;7.88;3.47;;;;;;;;;;5041333;28;20036;-78
2022/04/03 08:01:29;;;;;;;5.57;2.78;;;;;;;;;;5026178;28;20742;-78
2022/04/03 08:03:55;;;;;;;2.10;1.30;;;;;;;;;;5037024;28;20130;-77
2022/04/03 08:06:21;;;;;;;2.65;1.45;;;;;;;;;;5036938;28;20410;-78
2022/04/03 08:08:47;;;;;;;2.92;1.85;;;;;;;;;;5044052;28;20033;-78
2022/04/03 08:11:13;;;;;;;5.00;1.83;;;;;;;;;;5037701;28;20040;-79
2022/04/03 08:13:39;;;;;;;3.25;1.90;;;;;;;;;;5038206;28;20476;-79
2022/04/03 08:16:05;;;;;;;4.60;1.33;;;;;;;;;;5041545;28;20022;-78
2022/04/03 08:18:34;;;;;;;2.85;1.48;;;;;;;;;;5039457;28;20048;-78
2022/04/03 08:21:00;;;;;;;2.58;1.05;;;;;;;;;;5050270;28;20650;-78
2022/04/03 08:23:28;;;;;;;8.10;3.63;;;;;;;;;;5049116;28;20057;-78
2022/04/03 08:25:54;;;;;;;3.15;1.70;;;;;;;;;;5036893;28;20440;-78
2022/04/03 08:28:22;;;;;;;2.50;1.05;;;;;;;;;;5041416;28;20033;-77
2022/04/03 08:30:48;;;;;;;2.33;0.77;;;;;;;;;;5031183;28;20113;-77
2022/04/03 08:33:14;;;;;;;3.40;1.85;;;;;;;;;;5036211;28;20279;-77
2022/04/03 08:35:40;;;;;;;1.77;1.02;;;;;;;;;;5035635;28;20051;-78
2022/04/03 08:38:07;;;;;;;3.65;1.58;;;;;;;;;;5034496;28;20029;-79
2022/04/03 08:40:33;;;;;;;2.28;1.13;;;;;;;;;;5033204;28;20158;-78
2022/04/03 08:43:00;;;;;;;2.22;1.35;;;;;;;;;;5028859;28;20038;-78
2022/04/03 08:45:26;;;;;;;2.75;1.83;;;;;;;;;;5030498;28;20029;-76
2022/04/03 08:47:54;;;;;;;5.97;2.63;;;;;;;;;;5037589;28;20032;-77
2022/04/03 08:50:21;;;;;;;10.25;2.45;;;;;;;;;;5034899;28;20049;-76
2022/04/03 08:52:48;;;;;;;3.75;1.63;;;;;;;;;;5025895;28;20138;-77
2022/04/03 08:55:14;;;;;;;4.18;1.67;;;;;;;;;;5041349;28;20048;-77
2022/04/03 08:57:40;;;;;;;2.75;1.42;;;;;;;;;;5040044;28;20420;-77
2022/04/03 09:00:07;;;;;;;2.53;1.10;;;;;;;;;;5038531;28;20033;-77
2022/04/03 09:02:33;;;;;;;4.78;1.20;;;;;;;;;;5033220;28;20060;-77
2022/04/03 09:04:59;;;;;;;1.70;1.00;;;;;;;;;;5031014;28;20021;-77
2022/04/03 09:07:25;;;;;;;2.20;1.33;;;;;;;;;;5026500;28;20077;-77
2022/04/03 09:09:58;;;;;;;4.18;1.38;;;;;;;;;;5028338;28;20026;-78
2022/04/03 09:12:26;;;;;;;2.38;0.98;;;;;;;;;;5029708;28;20036;-78
2022/04/03 09:14:53;;;;;;;3.40;1.08;;;;;;;;;;5030829;28;20037;-79
2022/04/03 09:17:38;;;;;;;3.25;1.70;;;;;;;;;;5038607;28;20037;-79
2022/04/03 09:20:06;;;;;;;1.92;1.10;;;;;;;;;;5039061;28;20017;-77
2022/04/03 09:22:33;;;;;;;2.45;1.30;;;;;;;;;;5039162;28;20068;-79
2022/04/03 09:24:59;;;;;;;2.58;0.82;;;;;;;;;;5032834;28;20044;-77
2022/04/03 09:27:25;;;;;;;3.30;1.60;;;;;;;;;;5034135;28;20029;-77
2022/04/03 09:30:02;;;;;;;3.50;1.20;;;;;;;;;;5042218;28;20067;-77
2022/04/03 09:32:28;;;;;;;4.38;1.38;;;;;;;;;;5036552;28;20090;-77
2022/04/03 09:34:57;;;;;;;2.25;1.10;;;;;;;;;;5042815;28;20481;-79
2022/04/03 09:37:24;;;;;;;3.35;1.17;;;;;;;;;;5042590;28;20047;-77
2022/04/03 09:39:50;;;;;;;4.07;1.70;;;;;;;;;;5045433;28;20021;-77
2022/04/03 09:42:17;;;;;;;5.30;1.33;;;;;;;;;;5038393;28;20128;-76
2022/04/03 09:44:44;;;;;;;9.88;1.77;;;;;;;;;;5043903;28;20447;-77
2022/04/03 09:47:14;;;;;;;2.08;1.10;;;;;;;;;;5037998;28;20041;-76
2022/04/03 09:49:40;;;;;;;4.18;1.42;;;;;;;;;;5038645;28;20041;-80
2022/04/03 09:52:07;;;;;;;1.67;1.02;;;;;;;;;;5041993;28;20076;-78
2022/04/03 09:54:33;;;;;;;4.50;1.88;;;;;;;;;;5045620;28;20498;-78
2022/04/03 09:57:19;;;;;;;2.47;0.80;;;;;;;;;;5046144;28;20093;-78
2022/04/03 09:59:52;;;;;;;1.52;0.93;;;;;;;;;;5046445;28;20038;-78
2022/04/03 10:02:18;;;;;;;2.00;1.77;;;;;;;;;;5053921;28;20044;-78
2022/04/03 10:04:45;;;;;;;4.30;1.50;;;;;;;;;;5039673;28;20045;-78
2022/04/03 10:07:14;;;;;;;5.35;1.33;;;;;;;;;;5047184;28;20033;-78
2022/04/03 10:09:51;;;;;;;1.92;1.13;;;;;;;;;;5051369;28;20025;-78
2022/04/03 10:12:18;;;;;;;2.00;1.05;;;;;;;;;;5054448;28;20028;-79
2022/04/03 10:14:45;;;;;;;1.85;0.90;;;;;;;;;;5042251;28;20395;-78
2022/04/03 10:17:11;;;;;;;5.97;1.83;;;;;;;;;;5050459;28;20566;-79
2022/04/03 10:19:37;;;;;;;3.00;1.40;;;;;;;;;;5047944;28;20045;-78
2022/04/03 10:22:05;;;;;;;2.88;1.20;;;;;;;;;;5043603;28;20021;-79
2022/04/03 10:24:34;;;;;;;3.58;1.25;;;;;;;;;;5049367;28;20087;-79
2022/04/03 10:27:07;;;;;;;2.20;0.90;;;;;;;;;;5050772;28;20017;-79
2022/04/03 10:29:37;;;;;;;2.05;1.38;;;;;;;;;;5056609;28;21320;-80
2022/04/03 10:32:04;;;;;;;3.28;1.33;;;;;;;;;;5048554;28;20033;-79
2022/04/03 10:34:30;;;;;;;5.18;1.35;;;;;;;;;;5045065;28;20030;-80
2022/04/03 10:36:56;;;;;;;4.63;1.65;;;;;;;;;;5047832;28;20468;-79
2022/04/03 10:39:26;;;;;;;3.17;1.13;;;;;;;;;;5042933;28;20044;-79
2022/04/03 10:42:11;;;;;;;10.98;3.20;;;;;;;;;;5046986;28;20333;-80
2022/04/03 10:44:37;;;;;;;3.70;1.17;;;;;;;;;;5047084;28;20052;-80
2022/04/03 10:47:03;;;;;;;2.65;1.45;;;;;;;;;;5045223;28;20036;-79
2022/04/03 10:49:32;;;;;;;2.42;1.00;;;;;;;;;;5049548;28;20167;-79
2022/04/03 10:52:04;;;;;;;3.67;1.08;;;;;;;;;;5051761;28;20039;-80
2022/04/03 10:54:32;;;;;;;2.17;0.93;;;6.20;93.10;;;;;;5053818;28;20029;-80
2022/04/03 10:57:17;;;;;;;2.58;1.80;;;;;;;;;;5052522;28;20429;-80
2022/04/03 10:59:43;;;;;;;3.28;0.80;;;;;;;;;;5054912;28;20025;-80
2022/04/03 11:02:15;;;;;;;4.97;0.90;;;;;;;;;;5041396;28;20093;-80
2022/04/03 11:04:41;;;;;;;4.55;0.80;;;;;;;;;;5029523;28;20029;-80
2022/04/03 11:07:13;;;;;;;5.55;0.75;;;;;;;;;;5041218;28;20059;-79
2022/04/03 11:09:47;;;;;;;2.67;1.23;;;;;;;;;;5047161;28;20083;-79
2022/04/03 11:12:13;;;;;;;1.67;0.85;;;;;;;;;;5048510;28;20044;-80
2022/04/03 11:14:55;;;;;;;3.53;1.10;;;;;;;;;;5038620;28;20056;-80
2022/04/03 11:17:41;;;;;;;3.08;1.13;;;;;;;;;;5043184;28;20146;-80
2022/04/03 11:20:07;;;;;;;5.00;1.55;;;;;;;;;;5043671;28;20036;-79
2022/04/03 11:22:33;;;;;;;1.88;0.75;;;;;;;;;;5051256;28;20199;-80
2022/04/03 11:25:00;;;;;;;3.55;0.63;;;;;;;;;;5038769;28;20017;-79
2022/04/03 11:27:27;;;;;;;5.93;2.13;;;;;;;;;;5044250;28;20522;-79
2022/04/03 11:29:53;;;;;;;9.68;2.45;;;;;;;;;;5045685;28;20025;-80
2022/04/03 11:32:20;;;;;;;2.20;0.75;;;;;;;;;;5053098;28;20044;-79
2022/04/03 11:34:56;;;;;;;1.33;0.77;;;;;;;;;;5036871;28;20048;-79
2022/04/03 11:37:22;;;;;;;1.40;0.85;;;;;;;;;;5040464;28;20133;-80
2022/04/03 11:39:48;;;;;;;1.55;0.98;;;;;;;;;;5039947;28;20194;-79
2022/04/03 11:42:14;;;;;;;1.80;0.60;;;;;;;;;;5049634;28;20052;-80
2022/04/03 11:44:42;;;;;;;0.73;0.47;;;;;;;;;;5037479;28;20282;-78
2022/04/03 11:47:18;;;;;;;1.73;0.80;;;6.20;81.90;;;;;;5046696;28;20087;-78
2022/04/03 11:49:44;;;;;;;1.05;0.77;;;;;;;;;;5048447;28;20162;-78
2022/04/03 11:52:11;;;;;;;1.98;0.90;;;;;;;;;;5044987;28;20078;-78
2022/04/03 11:54:38;;;;;;;0.38;0.38;;;;;;;;;;5035261;28;20030;-79
2022/04/03 11:57:08;;;;;;;2.58;0.60;;;;;;;;;;5045344;28;20029;-80
2022/04/03 11:59:35;;;;;;;1.25;0.40;;;;;;;;;;5045171;28;20033;-79
2022/04/03 12:02:09;;;;;;;1.20;0.60;;;;;;;;;;5054543;28;20127;-80
2022/04/03 12:04:38;;;;;;;3.08;0.77;;;;;;;;;;5043889;28;20056;-81
2022/04/03 12:07:04;;;;;;;2.13;0.68;;;;;;;;;;5035415;28;20032;-79
2022/04/03 12:09:30;;;;;;;1.40;0.55;;;;;;;;;;5027298;28;20033;-79
2022/04/03 12:11:58;;;;;;;0.82;0.50;;;;;;;;;;5033798;28;20229;-79
2022/04/03 12:14:25;;;;;;;1.05;0.35;;;;;;;;;;5033417;28;20036;-79
2022/04/03 12:17:10;;;;;;;1.98;0.90;;;;;;;;;;5037303;28;20029;-81
2022/04/03 12:19:36;;;;;;;0.63;0.45;;;;;;;;;;5039230;28;20120;-79
2022/04/03 12:22:04;;;;;;;0.60;0.47;;;;;;;;;;5040208;28;20518;-79
2022/04/03 12:24:31;;;;;;;0.73;0.45;;;;;;;;;;5048280;28;20068;-79
2022/04/03 12:27:00;;;;;;;0.45;0.35;;;;;;;;;;5041979;28;20037;-80
2022/04/03 12:29:30;;;;;;;0.73;0.30;;;;;;;;;;5039571;28;20043;-79
2022/04/03 12:32:02;;;;;;;1.02;0.40;;;;;;;;;;5036724;28;20153;-79
2022/04/03 12:34:29;;;;;;;0.60;0.50;;;;;;;;;;5032280;28;20068;-79
2022/04/03 12:36:56;;;;;;;2.65;0.60;;;;;;;;;;5041310;28;20036;-79
2022/04/03 12:39:29;;;;;;;2.47;0.50;;;;;;;;;;5043720;28;20048;-80
2022/04/03 12:41:56;;;;;;;1.17;0.45;;;;;;;;;;5040357;28;20512;-80
2022/04/03 12:44:22;;;;;;;0.82;0.50;;;;;;;;;;5035274;28;20049;-78
2022/04/03 12:46:48;;;;;;;2.60;0.95;;;;;;;;;;5042336;28;20064;-81
2022/04/03 12:49:20;;;;;;;1.13;0.50;;;;;;;;;;5042910;28;20056;-79
2022/04/03 12:51:47;;;;;;;1.58;0.57;;;;;;;;;;5045554;28;20044;-79
2022/04/03 12:54:14;;;;;;;2.85;0.90;;;;;;;;;;5045410;28;20083;-79
2022/04/03 12:59:37;;;;;;;3.78;0.68;;;;;;;;;;5041039;28;20051;-79
2022/04/03 13:02:05;;;;;;;1.63;0.57;;;;;;;;;;5037438;28;20116;-79
2022/04/03 13:04:32;;;;;;;1.73;0.77;;;;;;;;;;5045634;28;20045;-79
2022/04/03 13:06:58;;;;;;;1.42;0.60;;;;;;;;;;5032634;28;20033;-80
2022/04/03 13:09:24;;;;;;;1.23;0.57;;;;;;;;;;5041973;28;20131;-79
2022/04/03 13:11:51;;;;;;;5.68;0.55;;;;;;;;;;5048467;28;20028;-80
2022/04/03 13:14:36;;;;;;;1.42;0.73;;;5.90;78.70;;;;;;5041641;28;20045;-80
2022/04/03 13:17:04;;;;;;;3.00;0.73;;;;;;;;;;5043232;28;20033;-79
2022/04/03 13:19:31;;;;;;;1.10;0.55;;;;;;;;;;5045177;28;20359;-79
2022/04/03 13:21:58;;;;;;;3.17;0.98;;;;;;;;;;5040561;28;20125;-79
2022/04/03 13:24:27;;;;;;;2.85;0.68;;;;;;;;;;5040677;28;20033;-80
2022/04/03 13:26:53;;;;;;;2.80;1.00;;;;;;;;;;5048996;28;20032;-79
2022/04/03 13:29:19;;;;;;;19.52;5.60;;;;;;;;;;5049068;28;20021;-81
2022/04/03 13:31:46;;;;;;;4.35;2.08;;;;;;;;;;5041231;28;20032;-80
2022/04/03 13:34:12;;;;;;;21.23;7.65;;;;;;;;;;5037336;28;20022;-80
2022/04/03 13:36:38;;;;;;;4.32;1.02;;;;;;;;;;5035967;28;20440;-80
2022/04/03 13:39:07;;;;;;;1.65;0.73;;;6.20;83.40;;;;;;5039588;28;20528;-79
2022/04/03 13:41:34;;;;;;;1.35;0.57;;;;;;;;;;5038155;28;20032;-78
2022/04/03 13:44:00;;;;;;;2.38;0.80;;;;;;;;;;5042193;28;20134;-79
2022/04/03 13:46:26;;;;;;;1.23;0.60;;;;;;;;;;5048873;28;20041;-79
2022/04/03 13:48:52;;;;;;;2.33;0.70;;;;;;;;;;5043702;28;20044;-79
2022/04/03 13:51:18;;;;;;;2.75;0.60;;;;;;;;;;5044102;28;20531;-78
2022/04/03 13:53:46;;;;;;;1.73;0.77;;;;;;;;;;5042990;28;20044;-80
2022/04/03 13:56:13;;;;;;;2.58;1.42;;;;;;;;;;5050841;28;20025;-79
2022/04/03 13:58:39;;;;;;;1.58;0.75;;;;;;;;;;5043230;28;20033;-79
2022/04/03 14:01:06;;;;;;;0.68;0.60;;;;;;;;;;5052608;28;20048;-79
2022/04/03 14:03:32;;;;;;;5.50;0.85;;;;;;;;;;5040708;28;20040;-82
2022/04/03 14:05:58;;;;;;;2.28;0.77;;;;;;;;;;5037553;28;20056;-79
2022/04/03 14:08:25;;;;;;;3.00;1.88;;;;;;;;;;5037353;28;20396;-80
2022/04/03 14:10:52;;;;;;;3.45;1.92;;;;;;;;;;5038241;28;20048;-79
2022/04/03 14:13:26;;;;;;;3.17;1.58;;;;;;;;;;5048320;28;21279;-80
2022/04/03 14:15:53;;;;;;;3.05;0.88;;;;;;;;;;5042624;28;20025;-78
2022/04/03 14:18:24;;;;;;;2.45;0.90;;;;;;;;;;5043840;28;20044;-79
2022/04/03 14:20:50;;;;;;;1.63;0.60;;;;;;;;;;5031903;28;20021;-79
2022/04/03 14:23:16;;;;;;;1.73;0.88;;;;;;;;;;5047586;28;20027;-79
2022/04/03 14:25:42;;;;;;;1.98;0.75;;;;;;;;;;5052138;28;20021;-80
2022/04/03 14:28:09;;;;;;;0.75;0.45;;;;;;;;;;5040368;28;20056;-79
2022/04/03 14:30:35;;;;;;;9.60;8.60;;;;;;;;;;5048857;28;20033;-79
2022/04/03 14:33:01;;;;;;;2.05;1.10;;;;;;;;;;5049861;28;20470;-79
2022/04/03 14:35:27;;;;;;;1.02;0.60;;;;;;;;;;5051707;28;20033;-79
2022/04/03 14:37:53;;;;;;;2.55;1.00;;;;;;;;;;5038974;28;20512;-79
2022/04/03 14:40:19;;;;;;;1.58;0.60;;;;;;;;;;5043890;28;20017;-81
2022/04/03 14:42:45;;;;;;;1.85;0.90;;;;;;;;;;5040748;28;20029;-79